Overview Statistics Trail Chart Weather Telemetry Raw packets
 

This is the latest recevied weather packets stored in our database for station/object VK2KGV-15. If no packets are shown the sender has not sent any weather packets the latest 10 day(s).

<< 2 3 4 5 6 7 8 >>
Time Temp. Humidity Pressure Rain* Wind** Luminosity Snow
1788451527 7.22° C 84% 1020.6 hPa 1.52 mm - - -
1788449717 7.78° C 83% 1020.8 hPa 1.52 mm - - -
1788448511 7.78° C 81% 1020.9 hPa 1.52 mm - - -
1788447305 8.33° C 81% 1020.8 hPa 1.52 mm - - -
1788446702 8.33° C 80% 1020.8 hPa 1.52 mm - - -
1788446170 8.33° C 79% 1020.7 hPa 1.52 mm - - -
1788446098 8.33° C 79% 1020.7 hPa 1.52 mm - - -
1788444892 8.33° C 79% 1020.6 hPa 1.52 mm - - -
1788443686 8.89° C 77% 1020.5 hPa 1.52 mm - - -
1788441274 9.44° C 75% 1020.4 hPa 1.52 mm - - -
1788440671 10° C 73% 1020.4 hPa 1.52 mm - - -
1788437655 11.11° C 70% 1020.2 hPa 1.52 mm - - -
1788436449 11.67° C 68% 1020.2 hPa 1.52 mm - - -
1788435242 12.22° C 67% 1019.9 hPa 1.52 mm - - -
1788434036 13.33° C 63% 1019.8 hPa 1.52 mm - - -
1788432832 13.89° C 62% 1019.5 hPa 1.52 mm - - -
1788431624 14.44° C 59% 1019.3 hPa 1.52 mm - - -
1788430418 15.56° C 54% 1018.9 hPa 1.52 mm - - -
1788428608 17.78° C 49% 1018.3 hPa 1.52 mm - - -
1788428005 18.33° C 47% 1018.1 hPa 1.52 mm - - -
1788426799 20° C 44% 1017.8 hPa 1.52 mm - - -
1788424386 22.22° C 40% 1017.2 hPa 1.52 mm - - -
1788423180 22.78° C 39% 1016.9 hPa 1.52 mm - - -
1788421974 23.33° C 37% 1016.6 hPa 1.52 mm - - -
1788420768 24.44° C 35% 1016.3 hPa 1.52 mm - - -

* Rain since midnight (hover to see other rain measurements)
** Current wind speed in m/s (hover to see current wind gust speed)